Terminal Aerodrome Forecast
Issued by NWS

Home | Current Version | Previous Version | Graphics & Text | Print | Product List | Glossary On
Versions: 1 2 3 4 5 6 7 8 9 10 11 12 13 14
000
FTUS43 KIWX 170900 AAA
TAFSBN
TAF AMD
KSBN 170924Z 1709/1806 22008KT P6SM SCT010
     FM171700 25014G21KT P6SM BKN030
     FM180100 30010KT P6SM OVC020=

USA.gov is the U.S. government's official web portal to all federal, state and local government web resources and services.